createdAt,value
2023-05-02T00:00:54.147Z,9.60
2023-05-02T00:05:55.291Z,8.10
2023-05-02T00:10:56.265Z,7.20
2023-05-02T00:15:57.724Z,7.60
2023-05-02T00:20:58.788Z,6.60
2023-05-02T00:26:00.152Z,5.70
2023-05-02T00:31:01.682Z,6.00
2023-05-02T00:36:02.985Z,4.80
2023-05-02T00:41:05.180Z,5.20
2023-05-02T00:46:07.322Z,5.50
2023-05-02T00:51:11.486Z,4.60
2023-05-02T00:56:12.555Z,4.20
2023-05-02T01:01:29.187Z,4.90
2023-05-02T01:06:42.616Z,4.50
2023-05-02T01:11:52.970Z,4.70
2023-05-02T01:16:56.119Z,5.30
2023-05-02T01:21:59.527Z,5.00
2023-05-02T01:27:14.693Z,4.30
2023-05-02T01:32:19.013Z,5.00
2023-05-02T01:37:22.793Z,7.10
2023-05-02T01:42:26.204Z,4.60
2023-05-02T01:47:30.473Z,5.00
2023-05-02T01:52:32.254Z,5.40
2023-05-02T01:57:35.999Z,5.40
2023-05-02T02:02:38.677Z,5.20
2023-05-02T02:07:40.371Z,4.70
2023-05-02T02:12:44.640Z,6.20
2023-05-02T02:17:49.080Z,4.70
2023-05-02T02:22:52.446Z,4.60
2023-05-02T02:27:53.822Z,4.40
2023-05-02T02:32:55.241Z,3.50
2023-05-02T02:38:28.055Z,3.90
2023-05-02T02:44:13.534Z,4.20
2023-05-02T02:49:28.383Z,3.90
2023-05-02T02:54:40.545Z,3.50
2023-05-02T02:59:50.717Z,3.90
2023-05-02T03:04:54.266Z,3.70
2023-05-02T03:09:55.565Z,3.90
2023-05-02T03:15:13.925Z,3.90
2023-05-02T03:20:16.041Z,3.10
2023-05-02T03:25:17.220Z,3.50
2023-05-02T03:30:19.458Z,3.30
2023-05-02T03:35:21.225Z,2.80
2023-05-02T03:40:22.972Z,2.90
2023-05-02T03:45:24.112Z,3.00
2023-05-02T03:50:26.100Z,3.00
2023-05-02T03:55:27.785Z,2.50
2023-05-02T04:00:30.843Z,2.80
2023-05-02T04:05:34.072Z,2.80
2023-05-02T04:10:35.781Z,3.00
2023-05-02T04:15:40.018Z,3.20
2023-05-02T04:20:44.883Z,3.70
2023-05-02T04:25:56.432Z,3.90
2023-05-02T04:31:05.262Z,4.60
2023-05-02T04:36:09.318Z,4.20
2023-05-02T04:41:11.085Z,3.40
2023-05-02T04:46:17.884Z,3.50
2023-05-02T04:51:19.243Z,3.70
2023-05-02T04:56:23.033Z,4.00
2023-05-02T05:01:27.115Z,2.90
2023-05-02T05:06:29.059Z,3.10
2023-05-02T05:11:30.964Z,3.00
2023-05-02T05:16:32.956Z,3.00
2023-05-02T05:21:34.441Z,3.50
2023-05-02T05:26:36.838Z,3.90
2023-05-02T05:31:38.077Z,3.60
2023-05-02T05:36:40.808Z,3.00
2023-05-02T05:41:42.619Z,3.70
2023-05-02T05:46:45.700Z,3.00
2023-05-02T05:51:47.367Z,3.20
2023-05-02T05:56:49.005Z,2.90
2023-05-02T06:01:53.436Z,2.60
2023-05-02T06:06:56.624Z,2.90
2023-05-02T06:11:58.163Z,2.50
2023-05-02T06:17:00.044Z,2.40
2023-05-02T06:22:02.085Z,2.30
2023-05-02T06:27:03.206Z,2.10
2023-05-02T06:32:05.788Z,2.10
2023-05-02T06:37:06.880Z,2.10
2023-05-02T06:42:07.936Z,2.40
2023-05-02T06:47:09.492Z,2.20
2023-05-02T06:52:10.582Z,2.00
2023-05-02T06:57:11.715Z,1.80
2023-05-02T07:02:12.695Z,2.00
2023-05-02T07:07:17.933Z,1.80
2023-05-02T07:12:19.082Z,2.00
2023-05-02T07:17:20.729Z,2.40
2023-05-02T07:22:21.668Z,1.90
2023-05-02T07:27:22.973Z,1.70
2023-05-02T07:32:27.408Z,1.50
2023-05-02T07:37:34.335Z,1.80
2023-05-02T07:42:35.796Z,2.20
2023-05-02T07:47:37.025Z,1.80
2023-05-02T07:52:38.102Z,2.20
2023-05-02T07:57:39.352Z,1.70
2023-05-02T08:02:42.029Z,2.20
2023-05-02T08:07:43.281Z,1.90
2023-05-02T08:12:44.298Z,1.90
2023-05-02T08:17:45.306Z,1.70
2023-05-02T08:22:46.329Z,1.80
2023-05-02T08:27:47.310Z,2.20
2023-05-02T08:32:48.360Z,1.90
2023-05-02T08:37:49.366Z,2.30
2023-05-02T08:42:52.425Z,2.40
2023-05-02T08:47:56.821Z,2.20
2023-05-02T08:52:58.973Z,2.40
2023-05-02T08:58:00.866Z,2.00
2023-05-02T09:03:05.689Z,2.90
2023-05-02T09:08:07.838Z,2.50
2023-05-02T09:13:29.832Z,2.70
2023-05-02T09:18:51.338Z,2.40
2023-05-02T09:23:54.873Z,2.90
2023-05-02T09:28:56.831Z,2.30
2023-05-02T09:34:08.225Z,2.40
2023-05-02T09:39:13.028Z,2.70
2023-05-02T09:44:19.119Z,2.60
2023-05-02T09:49:44.188Z,2.70
2023-05-02T09:54:45.837Z,2.90
2023-05-02T09:59:55.216Z,3.00
2023-05-02T10:04:57.382Z,3.20
2023-05-02T10:10:01.095Z,3.00
2023-05-02T10:15:03.924Z,3.60
2023-05-02T10:20:07.130Z,3.90
2023-05-02T10:25:08.821Z,2.20
2023-05-02T10:30:12.606Z,3.80
2023-05-02T10:35:15.441Z,3.10
2023-05-02T10:40:18.235Z,3.40
2023-05-02T10:45:34.008Z,3.60
2023-05-02T10:50:51.617Z,4.10
2023-05-02T10:56:09.008Z,4.30
2023-05-02T11:01:35.824Z,4.20
2023-05-02T11:06:57.158Z,4.90
2023-05-02T11:16:59.261Z,5.40
2023-05-02T11:22:18.917Z,4.80
2023-05-02T11:27:28.842Z,4.90
2023-05-02T11:32:46.105Z,4.70
2023-05-02T11:37:54.702Z,4.70
2023-05-02T11:42:58.030Z,4.60
2023-05-02T11:47:59.413Z,4.70
2023-05-02T11:53:00.646Z,4.90
2023-05-02T11:58:01.726Z,6.50
2023-05-02T12:03:03.627Z,4.90
2023-05-02T12:08:04.758Z,4.50
2023-05-02T12:13:06.093Z,3.50
2023-05-02T12:18:07.742Z,4.50
2023-05-02T12:23:10.104Z,4.10
2023-05-02T12:28:11.655Z,2.90
2023-05-02T12:33:13.193Z,3.40
2023-05-02T12:38:17.565Z,3.50
2023-05-02T12:43:21.288Z,3.10
2023-05-02T12:48:26.793Z,3.10
2023-05-02T12:53:42.554Z,3.20
2023-05-02T12:58:45.501Z,2.00
2023-05-02T13:03:47.577Z,1.70
2023-05-02T13:08:48.671Z,2.70
2023-05-02T13:13:49.813Z,2.50
2023-05-02T13:18:50.987Z,2.40
2023-05-02T13:23:52.779Z,2.40
2023-05-02T13:28:53.833Z,2.20
2023-05-02T13:33:55.082Z,2.00
2023-05-02T13:38:57.005Z,1.70
2023-05-02T13:43:58.074Z,2.00
2023-05-02T13:48:59.131Z,1.70
2023-05-02T13:54:00.635Z,1.50
2023-05-02T13:59:02.052Z,1.60
2023-05-02T14:04:07.874Z,1.70
2023-05-02T14:09:09.189Z,1.80
2023-05-02T14:14:11.915Z,2.00
2023-05-02T14:19:13.159Z,1.90
2023-05-02T14:24:15.796Z,1.70
2023-05-02T14:29:17.442Z,1.50
2023-05-02T14:34:18.509Z,2.00
2023-05-02T14:39:19.692Z,1.70
2023-05-02T14:44:20.765Z,1.90
2023-05-02T14:49:21.884Z,1.90
2023-05-02T14:54:27.889Z,1.50
2023-05-02T14:59:29.819Z,1.20
2023-05-02T15:04:31.106Z,2.00
2023-05-02T15:09:32.493Z,1.70
2023-05-02T15:14:33.535Z,1.90
2023-05-02T15:19:34.607Z,2.30
2023-05-02T15:24:35.872Z,2.10
2023-05-02T15:29:37.067Z,2.50
2023-05-02T15:34:38.122Z,2.40
2023-05-02T15:39:39.151Z,2.50
2023-05-02T15:44:40.106Z,2.90
2023-05-02T15:49:41.112Z,3.30
2023-05-02T15:54:42.343Z,4.10
2023-05-02T15:59:43.538Z,5.60
2023-05-02T16:04:44.610Z,3.10
2023-05-02T16:09:45.597Z,4.10
2023-05-02T16:14:46.973Z,4.10
2023-05-02T16:19:47.950Z,3.30
2023-05-02T16:24:49.178Z,4.40
2023-05-02T16:29:50.581Z,4.80
2023-05-02T16:34:51.839Z,5.60
2023-05-02T16:39:54.723Z,5.60
2023-05-02T16:44:56.943Z,7.00
2023-05-02T16:49:59.178Z,6.80
2023-05-02T16:55:00.794Z,5.70
2023-05-02T17:00:05.543Z,8.30
2023-05-02T17:05:09.011Z,8.90
2023-05-02T17:10:11.171Z,8.20
2023-05-02T17:15:13.436Z,9.90
2023-05-02T17:20:16.641Z,8.60
2023-05-02T17:25:17.812Z,8.00
2023-05-02T17:30:19.412Z,17.00
2023-05-02T17:35:20.648Z,9.40
2023-05-02T17:40:21.845Z,8.00
2023-05-02T17:45:23.045Z,7.10
2023-05-02T17:50:24.152Z,6.90
2023-05-02T17:55:25.167Z,6.70
2023-05-02T18:00:26.172Z,7.10
2023-05-02T18:05:27.411Z,6.60
2023-05-02T18:10:28.798Z,8.10
2023-05-02T18:15:29.839Z,8.40
2023-05-02T18:20:31.033Z,11.90
2023-05-02T18:25:35.268Z,13.10
2023-05-02T18:30:37.237Z,13.80
2023-05-02T18:35:38.228Z,16.40
2023-05-02T18:40:39.298Z,16.30
2023-05-02T18:45:40.599Z,16.50
2023-05-02T18:50:42.006Z,15.50
2023-05-02T18:55:43.010Z,16.60
2023-05-02T19:00:44.002Z,15.70
2023-05-02T19:05:45.158Z,17.80
2023-05-02T19:10:46.686Z,17.80
2023-05-02T19:15:47.734Z,15.30
2023-05-02T19:20:49.964Z,17.70
2023-05-02T19:26:01.159Z,17.70
2023-05-02T19:31:16.476Z,14.40
2023-05-02T19:36:22.464Z,12.70
2023-05-02T19:41:23.723Z,12.60
2023-05-02T19:46:24.806Z,10.90
2023-05-02T19:51:27.377Z,12.00
2023-05-02T19:56:28.976Z,13.30
2023-05-02T20:01:30.526Z,12.50
2023-05-02T20:06:32.768Z,14.20
2023-05-02T20:11:33.930Z,12.60
2023-05-02T20:16:35.143Z,11.50
2023-05-02T20:21:36.706Z,12.80
2023-05-02T20:26:37.671Z,13.80
2023-05-02T20:31:39.525Z,18.80
2023-05-02T20:36:40.491Z,18.00
2023-05-02T20:41:41.656Z,16.10
2023-05-02T20:46:43.142Z,15.70
2023-05-02T20:51:44.228Z,14.10
2023-05-02T20:56:45.356Z,14.10
2023-05-02T21:01:46.373Z,17.70
2023-05-02T21:06:48.325Z,17.20
2023-05-02T21:11:50.608Z,15.50
2023-05-02T21:16:52.604Z,14.00
2023-05-02T21:21:53.718Z,13.20
2023-05-02T21:26:54.873Z,15.50
2023-05-02T21:31:55.981Z,11.70
2023-05-02T21:36:57.498Z,12.70
2023-05-02T21:42:18.755Z,12.60
2023-05-02T21:47:26.870Z,13.50
2023-05-02T21:52:30.998Z,12.10
2023-05-02T21:57:31.964Z,11.00
2023-05-02T22:02:33.058Z,10.80
2023-05-02T22:07:34.205Z,12.30
2023-05-02T22:12:35.194Z,14.50
2023-05-02T22:17:36.425Z,17.00
2023-05-02T22:22:37.610Z,14.70
2023-05-02T22:27:38.960Z,13.60
2023-05-02T22:32:40.734Z,11.90
2023-05-02T22:37:41.972Z,11.50
2023-05-02T22:42:42.951Z,13.30
2023-05-02T22:47:44.013Z,12.00
2023-05-02T22:52:46.287Z,11.40
2023-05-02T22:57:47.267Z,11.70
2023-05-02T23:02:48.623Z,10.40
2023-05-02T23:07:50.537Z,10.80
2023-05-02T23:12:55.543Z,12.30
2023-05-02T23:17:56.565Z,12.20
2023-05-02T23:22:57.658Z,13.10
2023-05-02T23:27:58.823Z,12.40
2023-05-02T23:33:00.303Z,11.90
2023-05-02T23:38:27.539Z,13.70
2023-05-02T23:43:48.987Z,13.20
2023-05-02T23:49:09.986Z,14.90
2023-05-02T23:54:11.000Z,16.90
2023-05-02T23:59:12.279Z,16.70
